Shoshone, California
Current Conditions -  °F | °C
As of 3:52 PM on Saturday 25 Oct 2014 (Local Time) from KDRA Reporting Station
Clear Clear  
Wind Chill: 79°   Ceiling: Unl
Heat Index: 79°   Visibility: 10mi
Dew Point: 37°   Wind: 23mph
Humidity: 22%   Direction: 190°S
Pressure: 29.98"   Gusts: 36mph
Location:  35.97°N, 116.27°W
Report Text: KDRA 252252Z AUTO 19020G31KT 10SM CLR 26/03 A2998 RMK AO2 PK WND 19031/2250 SLP115 T02610028
Loading
Personal Weather Stations






























Interactive Weather Map
Tropical Storm Tracking
New forecast layout! Learn more

10-Day Weather Forecast

Advertisements
Track Severe Weather on mobile